createdAt,value
2022-12-02T00:00:27.808Z,83.07
2022-12-02T00:02:55.916Z,83.11
2022-12-02T00:05:30.044Z,82.87
2022-12-02T00:08:01.946Z,82.79
2022-12-02T00:10:33.639Z,82.89
2022-12-02T00:13:29.863Z,82.78
2022-12-02T00:16:01.295Z,82.81
2022-12-02T00:18:28.759Z,82.85
2022-12-02T00:20:58.852Z,82.84
2022-12-02T00:23:26.062Z,82.63
2022-12-02T00:25:54.210Z,82.67
2022-12-02T00:28:21.434Z,82.64
2022-12-02T00:30:49.775Z,82.67
2022-12-02T00:33:18.383Z,82.55
2022-12-02T00:35:45.922Z,82.56
2022-12-02T00:38:12.812Z,82.51
2022-12-02T00:40:39.834Z,82.74
2022-12-02T00:43:35.697Z,82.70
2022-12-02T00:46:21.103Z,82.53
2022-12-02T00:48:48.012Z,82.62
2022-12-02T00:51:14.934Z,82.52
2022-12-02T00:53:41.839Z,82.51
2022-12-02T00:56:08.848Z,82.65
2022-12-02T00:58:35.736Z,82.54
2022-12-02T01:01:02.684Z,82.67
2022-12-02T01:03:29.692Z,82.72
2022-12-02T01:05:56.600Z,82.17
2022-12-02T01:08:27.519Z,82.55
2022-12-02T01:10:55.523Z,82.43
2022-12-02T01:13:22.585Z,82.37
2022-12-02T01:15:50.193Z,82.23
2022-12-02T01:18:17.335Z,82.38
2022-12-02T01:20:44.234Z,82.36
2022-12-02T01:23:11.289Z,82.40
2022-12-02T01:25:38.200Z,82.37
2022-12-02T01:28:05.120Z,82.16
2022-12-02T01:30:32.118Z,81.90
2022-12-02T01:32:59.131Z,82.04
2022-12-02T01:35:26.091Z,82.05
2022-12-02T01:37:52.999Z,82.30
2022-12-02T01:40:20.275Z,82.18
2022-12-02T01:42:47.306Z,82.19
2022-12-02T01:45:14.342Z,82.17
2022-12-02T01:47:41.360Z,82.25
2022-12-02T01:50:10.116Z,82.05
2022-12-02T01:52:37.057Z,82.31
2022-12-02T01:55:05.017Z,82.36
2022-12-02T01:57:31.930Z,82.31
2022-12-02T02:00:01.914Z,82.05
2022-12-02T02:02:31.973Z,82.27
2022-12-02T02:05:06.099Z,81.87
2022-12-02T02:07:33.737Z,81.98
2022-12-02T02:10:00.961Z,82.32
2022-12-02T02:12:28.112Z,82.18
2022-12-02T02:14:55.351Z,82.18
2022-12-02T02:17:23.189Z,81.98
2022-12-02T02:19:50.243Z,82.00
2022-12-02T02:22:23.286Z,82.10
2022-12-02T02:24:50.693Z,82.04
2022-12-02T02:27:18.165Z,82.15
2022-12-02T02:29:45.310Z,81.82
2022-12-02T02:32:12.438Z,81.77
2022-12-02T02:34:39.513Z,81.86
2022-12-02T02:37:06.489Z,81.97
2022-12-02T02:39:33.807Z,81.86
2022-12-02T02:42:01.123Z,81.91
2022-12-02T02:44:29.200Z,81.98
2022-12-02T02:46:56.927Z,81.92
2022-12-02T02:49:23.971Z,81.82
2022-12-02T02:51:51.005Z,82.09
2022-12-02T02:54:18.226Z,81.68
2022-12-02T02:56:45.281Z,81.84
2022-12-02T02:59:16.061Z,81.80
2022-12-02T03:01:45.438Z,81.68
2022-12-02T03:04:14.362Z,81.86
2022-12-02T03:06:42.441Z,81.87
2022-12-02T03:09:13.396Z,81.83
2022-12-02T03:11:41.398Z,81.53
2022-12-02T03:14:11.581Z,81.73
2022-12-02T03:16:42.424Z,81.66
2022-12-02T03:19:09.664Z,81.79
2022-12-02T03:21:36.688Z,81.64
2022-12-02T03:24:04.567Z,81.62
2022-12-02T03:26:34.064Z,81.49
2022-12-02T03:29:02.227Z,81.39
2022-12-02T03:31:29.506Z,81.50
2022-12-02T03:33:57.307Z,81.77
2022-12-02T03:36:24.760Z,81.66
2022-12-02T03:38:51.911Z,81.57
2022-12-02T03:41:19.127Z,81.73
2022-12-02T03:43:46.619Z,81.78
2022-12-02T03:46:13.872Z,81.93
2022-12-02T03:48:41.186Z,81.82
2022-12-02T03:51:08.648Z,81.45
2022-12-02T03:53:36.552Z,81.74
2022-12-02T03:56:08.425Z,81.80
2022-12-02T03:58:51.127Z,81.72
2022-12-02T04:01:19.475Z,81.72
2022-12-02T04:03:47.063Z,81.53
2022-12-02T04:06:14.652Z,81.41
2022-12-02T04:08:41.953Z,81.62
2022-12-02T04:11:09.004Z,81.40
2022-12-02T04:13:35.967Z,81.60
2022-12-02T04:16:03.249Z,81.46
2022-12-02T04:18:30.312Z,81.47
2022-12-02T04:20:57.269Z,81.69
2022-12-02T04:23:24.417Z,81.37
2022-12-02T04:25:51.361Z,81.38
2022-12-02T04:28:18.515Z,81.33
2022-12-02T04:30:45.488Z,81.54
2022-12-02T04:33:12.445Z,81.42
2022-12-02T04:35:39.393Z,81.53
2022-12-02T04:38:11.760Z,81.50
2022-12-02T04:40:39.520Z,81.38
2022-12-02T04:43:06.709Z,81.17
2022-12-02T04:45:33.727Z,81.43
2022-12-02T04:48:01.031Z,81.44
2022-12-02T04:50:28.425Z,81.26
2022-12-02T04:52:55.619Z,81.16
2022-12-02T04:55:22.641Z,81.13
2022-12-02T04:57:49.634Z,81.23
2022-12-02T05:00:17.000Z,81.00
2022-12-02T05:02:44.727Z,80.94
2022-12-02T05:05:12.077Z,80.82
2022-12-02T05:07:39.164Z,80.70
2022-12-02T05:10:07.403Z,80.89
2022-12-02T05:12:34.361Z,80.72
2022-12-02T05:15:01.407Z,80.73
2022-12-02T05:17:28.419Z,80.85
2022-12-02T05:19:55.657Z,80.69
2022-12-02T05:22:22.637Z,80.53
2022-12-02T05:24:49.995Z,80.59
2022-12-02T05:27:17.885Z,80.50
2022-12-02T05:29:44.934Z,80.65
2022-12-02T05:32:11.889Z,80.46
2022-12-02T05:34:38.941Z,80.63
2022-12-02T05:37:06.026Z,80.64
2022-12-02T05:39:33.180Z,80.34
2022-12-02T05:42:03.400Z,80.64
2022-12-02T05:44:39.211Z,80.50
2022-12-02T05:47:15.789Z,80.63
2022-12-02T05:49:44.380Z,80.45
2022-12-02T05:52:25.481Z,80.57
2022-12-02T05:54:55.250Z,80.57
2022-12-02T05:57:28.995Z,80.59
2022-12-02T06:00:23.240Z,80.46
2022-12-02T06:02:57.117Z,80.39
2022-12-02T06:05:29.974Z,80.33
2022-12-02T06:08:19.425Z,80.54
2022-12-02T06:10:53.006Z,80.40
2022-12-02T06:13:24.044Z,80.65
2022-12-02T06:15:51.911Z,80.59
2022-12-02T06:18:28.213Z,80.38
2022-12-02T06:21:01.209Z,80.38
2022-12-02T06:23:32.178Z,80.43
2022-12-02T06:26:00.025Z,80.57
2022-12-02T06:28:39.393Z,80.57
2022-12-02T06:31:18.848Z,80.45
2022-12-02T06:33:48.550Z,80.58
2022-12-02T06:36:21.383Z,80.51
2022-12-02T06:38:50.808Z,80.34
2022-12-02T06:41:20.662Z,80.74
2022-12-02T06:44:07.915Z,80.45
2022-12-02T06:46:36.006Z,80.63
2022-12-02T06:49:21.684Z,80.39
2022-12-02T06:52:01.772Z,80.41
2022-12-02T06:54:29.923Z,80.68
2022-12-02T06:56:57.933Z,80.49
2022-12-02T06:59:24.842Z,80.51
2022-12-02T07:01:56.250Z,80.56
2022-12-02T07:04:31.493Z,80.57
2022-12-02T07:07:00.898Z,80.33
2022-12-02T07:09:38.708Z,80.36
2022-12-02T07:12:19.409Z,80.28
2022-12-02T07:14:54.295Z,80.55
2022-12-02T07:17:31.961Z,80.66
2022-12-02T07:20:32.358Z,80.67
2022-12-02T07:23:21.208Z,80.51
2022-12-02T07:25:48.853Z,80.41
2022-12-02T07:28:40.336Z,80.90
2022-12-02T07:31:20.356Z,80.71
2022-12-02T07:33:47.931Z,80.65
2022-12-02T07:36:14.824Z,80.42
2022-12-02T07:41:33.329Z,80.23
2022-12-02T07:44:03.011Z,80.72
2022-12-02T07:46:30.009Z,80.66
2022-12-02T07:48:57.501Z,80.52
2022-12-02T07:51:25.268Z,80.50
2022-12-02T07:53:52.241Z,80.70
2022-12-02T07:56:19.123Z,80.36
2022-12-02T07:59:11.496Z,80.55
2022-12-02T08:01:32.944Z,80.78
2022-12-02T08:03:59.994Z,80.81
2022-12-02T08:06:27.005Z,80.74
2022-12-02T08:08:53.888Z,80.63
2022-12-02T08:11:20.852Z,80.60
2022-12-02T08:13:48.098Z,80.92
2022-12-02T08:16:15.127Z,80.80
2022-12-02T08:18:42.115Z,80.58
2022-12-02T08:21:09.718Z,80.64
2022-12-02T08:23:36.859Z,80.82
2022-12-02T08:26:04.099Z,80.45
2022-12-02T08:28:31.028Z,80.42
2022-12-02T08:30:57.996Z,80.45
2022-12-02T08:33:25.023Z,80.78
2022-12-02T08:35:51.983Z,80.75
2022-12-02T08:38:19.247Z,80.69
2022-12-02T08:40:46.183Z,80.72
2022-12-02T08:43:13.128Z,80.40
2022-12-02T08:45:40.018Z,80.48
2022-12-02T08:48:06.953Z,80.69
2022-12-02T08:50:33.860Z,80.57
2022-12-02T08:53:00.942Z,80.72
2022-12-02T08:55:27.901Z,80.34
2022-12-02T08:57:54.817Z,80.60
2022-12-02T09:00:21.833Z,80.32
2022-12-02T09:02:49.076Z,80.66
2022-12-02T09:05:17.000Z,80.62
2022-12-02T09:07:43.950Z,80.36
2022-12-02T09:10:11.725Z,80.40
2022-12-02T09:12:38.739Z,80.37
2022-12-02T09:15:07.067Z,80.31
2022-12-02T09:17:34.006Z,80.48
2022-12-02T09:20:01.035Z,80.64
2022-12-02T09:22:27.919Z,80.38
2022-12-02T09:24:55.112Z,80.37
2022-12-02T09:27:22.037Z,80.60
2022-12-02T09:29:48.991Z,80.50
2022-12-02T09:32:16.074Z,80.45
2022-12-02T09:34:42.949Z,80.47
2022-12-02T09:37:09.899Z,80.53
2022-12-02T09:39:39.120Z,80.50
2022-12-02T09:42:10.029Z,80.58
2022-12-02T09:44:37.188Z,80.63
2022-12-02T09:47:04.202Z,80.38
2022-12-02T09:49:31.507Z,80.32
2022-12-02T09:51:59.886Z,80.37
2022-12-02T09:54:26.786Z,80.37
2022-12-02T09:56:54.053Z,80.47
2022-12-02T09:59:22.912Z,80.36
2022-12-02T10:01:49.910Z,80.23
2022-12-02T10:04:20.883Z,80.37
2022-12-02T10:06:48.208Z,80.40
2022-12-02T10:09:27.262Z,80.51
2022-12-02T10:11:54.213Z,80.37
2022-12-02T10:14:21.151Z,80.34
2022-12-02T10:16:48.206Z,80.28
2022-12-02T10:19:18.949Z,80.15
2022-12-02T10:21:45.968Z,80.46
2022-12-02T10:24:13.377Z,80.29
2022-12-02T10:26:48.870Z,80.35
2022-12-02T10:29:26.545Z,80.16
2022-12-02T10:32:01.617Z,80.04
2022-12-02T10:34:30.063Z,80.38
2022-12-02T10:36:56.945Z,79.82
2022-12-02T10:39:26.531Z,80.27
2022-12-02T10:42:09.605Z,80.14
2022-12-02T10:44:44.772Z,80.38
2022-12-02T10:47:26.926Z,80.35
2022-12-02T10:49:55.911Z,80.03
2022-12-02T10:52:27.896Z,80.23
2022-12-02T10:54:55.427Z,80.07
2022-12-02T10:57:27.655Z,80.29
2022-12-02T10:59:56.052Z,80.21
2022-12-02T11:02:31.225Z,79.97
2022-12-02T11:05:01.527Z,80.40
2022-12-02T11:07:28.459Z,80.11
2022-12-02T11:09:56.183Z,80.35
2022-12-02T11:12:49.042Z,80.14
2022-12-02T11:15:36.139Z,80.25
2022-12-02T11:18:03.444Z,80.34
2022-12-02T11:20:35.133Z,80.23
2022-12-02T11:23:25.039Z,80.15
2022-12-02T11:26:03.998Z,79.97
2022-12-02T11:28:31.924Z,80.17
2022-12-02T11:31:11.037Z,79.88
2022-12-02T11:33:46.375Z,79.83
2022-12-02T11:36:23.955Z,79.97
2022-12-02T11:38:50.814Z,80.11
2022-12-02T11:41:25.946Z,79.80
2022-12-02T11:44:00.761Z,79.92
2022-12-02T11:46:48.137Z,79.71
2022-12-02T11:49:41.323Z,79.95
2022-12-02T11:52:12.096Z,79.77
2022-12-02T11:54:41.210Z,79.74
2022-12-02T11:57:14.441Z,79.82
2022-12-02T11:59:41.557Z,79.69
2022-12-02T12:02:20.459Z,79.51
2022-12-02T12:04:59.302Z,79.50
2022-12-02T12:07:41.475Z,79.49
2022-12-02T12:10:22.994Z,79.66
2022-12-02T12:13:23.951Z,79.54
2022-12-02T12:16:01.276Z,79.58
2022-12-02T12:18:42.432Z,79.44
2022-12-02T12:21:09.445Z,79.66
2022-12-02T12:23:38.633Z,79.50
2022-12-02T12:26:06.955Z,79.38
2022-12-02T12:28:37.765Z,79.70
2022-12-02T12:31:06.424Z,79.44
2022-12-02T12:33:33.390Z,79.35
2022-12-02T12:36:00.809Z,79.33
2022-12-02T12:38:30.718Z,79.19
2022-12-02T12:40:58.476Z,79.43
2022-12-02T12:43:25.804Z,79.19
2022-12-02T12:45:52.798Z,79.39
2022-12-02T12:48:19.779Z,79.08
2022-12-02T12:50:46.770Z,79.37
2022-12-02T12:53:13.665Z,79.37
2022-12-02T12:55:40.580Z,79.21
2022-12-02T12:58:07.493Z,79.39
2022-12-02T13:00:34.387Z,79.36
2022-12-02T13:03:01.383Z,79.08
2022-12-02T13:05:28.348Z,79.19
2022-12-02T13:07:55.413Z,79.31
2022-12-02T13:10:22.324Z,79.36
2022-12-02T13:12:50.038Z,79.58
2022-12-02T13:15:17.938Z,79.38
2022-12-02T13:17:48.975Z,79.39
2022-12-02T13:20:16.727Z,79.37
2022-12-02T13:22:44.012Z,79.42
2022-12-02T13:25:11.834Z,79.55
2022-12-02T13:27:39.197Z,79.56
2022-12-02T13:30:08.208Z,79.68
2022-12-02T13:32:35.206Z,79.69
2022-12-02T13:35:02.112Z,79.77
2022-12-02T13:37:29.029Z,79.44
2022-12-02T13:39:55.982Z,79.76
2022-12-02T13:42:22.899Z,79.46
2022-12-02T13:44:50.993Z,79.66
2022-12-02T13:47:18.217Z,79.50
2022-12-02T13:49:45.153Z,79.46
2022-12-02T13:52:12.059Z,79.62
2022-12-02T13:54:38.931Z,79.56
2022-12-02T13:57:05.962Z,79.75
2022-12-02T13:59:37.822Z,79.41
2022-12-02T14:02:05.446Z,79.71
2022-12-02T14:04:32.469Z,79.52
2022-12-02T14:06:59.573Z,79.43
2022-12-02T14:09:26.478Z,79.66
2022-12-02T14:11:53.362Z,79.52
2022-12-02T14:14:20.465Z,79.43
2022-12-02T14:16:47.834Z,79.47
2022-12-02T14:19:14.771Z,79.77
2022-12-02T14:21:41.750Z,79.58
2022-12-02T14:24:08.746Z,79.71
2022-12-02T14:26:35.769Z,79.65
2022-12-02T14:29:02.667Z,79.66
2022-12-02T14:31:29.778Z,79.51
2022-12-02T14:34:13.618Z,79.72
2022-12-02T14:36:42.282Z,79.55
2022-12-02T14:39:10.481Z,79.50
2022-12-02T14:41:37.444Z,79.68
2022-12-02T14:44:04.341Z,79.56
2022-12-02T14:46:31.434Z,79.58
2022-12-02T14:49:23.116Z,79.63
2022-12-02T14:51:45.299Z,79.69
2022-12-02T14:54:12.267Z,79.76
2022-12-02T14:56:39.234Z,79.64
2022-12-02T14:59:10.991Z,79.45
2022-12-02T15:01:41.373Z,79.42
2022-12-02T15:04:09.017Z,79.59
2022-12-02T15:06:36.555Z,79.34
2022-12-02T15:09:04.616Z,79.67
2022-12-02T15:11:31.826Z,79.61
2022-12-02T15:13:58.789Z,79.22
2022-12-02T15:16:26.287Z,79.58
2022-12-02T15:18:53.490Z,79.56
2022-12-02T15:21:20.497Z,79.45
2022-12-02T15:23:48.182Z,79.60
2022-12-02T15:26:15.178Z,79.56
2022-12-02T15:28:42.535Z,79.77
2022-12-02T15:31:09.573Z,79.85
2022-12-02T15:33:36.561Z,79.64
2022-12-02T15:36:03.685Z,79.60
2022-12-02T15:38:33.167Z,79.63
2022-12-02T15:41:00.689Z,79.41
2022-12-02T15:43:27.666Z,79.78
2022-12-02T15:45:54.668Z,79.68
2022-12-02T15:48:21.670Z,79.75
2022-12-02T15:50:54.530Z,79.73
2022-12-02T15:53:22.320Z,79.89
2022-12-02T15:55:50.098Z,79.85
2022-12-02T15:58:17.605Z,79.65
2022-12-02T16:00:44.892Z,79.66
2022-12-02T16:03:11.989Z,79.76
2022-12-02T16:05:38.958Z,79.85
2022-12-02T16:08:06.097Z,79.70
2022-12-02T16:10:33.465Z,79.50
2022-12-02T16:13:00.831Z,79.63
2022-12-02T16:15:27.849Z,79.79
2022-12-02T16:17:54.884Z,79.36
2022-12-02T16:20:21.900Z,79.57
2022-12-02T16:22:48.975Z,79.85
2022-12-02T16:25:16.781Z,79.83
2022-12-02T16:27:43.878Z,79.40
2022-12-02T16:30:11.757Z,79.49
2022-12-02T16:32:38.764Z,79.43
2022-12-02T16:35:06.250Z,79.68
2022-12-02T16:37:33.215Z,79.47
2022-12-02T16:40:00.325Z,79.49
2022-12-02T16:42:27.540Z,79.56
2022-12-02T16:44:56.787Z,79.40
2022-12-02T16:47:24.578Z,79.31
2022-12-02T16:49:51.579Z,79.21
2022-12-02T16:52:18.949Z,79.27
2022-12-02T16:54:45.952Z,79.47
2022-12-02T16:57:12.927Z,79.18
2022-12-02T16:59:39.957Z,79.38
2022-12-02T17:02:06.971Z,79.15
2022-12-02T17:04:34.023Z,79.26
2022-12-02T17:07:01.141Z,79.19
2022-12-02T17:09:29.979Z,79.12
2022-12-02T17:11:57.781Z,78.99
2022-12-02T17:14:24.925Z,78.89
2022-12-02T17:16:52.086Z,78.96
2022-12-02T17:19:19.183Z,78.93
2022-12-02T17:21:48.495Z,78.97
2022-12-02T17:24:15.456Z,78.86
2022-12-02T17:26:42.439Z,79.05
2022-12-02T17:29:09.452Z,78.88
2022-12-02T17:31:36.460Z,78.78
2022-12-02T17:34:03.631Z,79.00
2022-12-02T17:36:33.453Z,78.58
2022-12-02T17:39:00.768Z,78.67
2022-12-02T17:41:28.122Z,78.63
2022-12-02T17:43:55.091Z,78.60
2022-12-02T17:46:22.178Z,78.62
2022-12-02T17:48:49.273Z,78.59
2022-12-02T17:51:16.901Z,78.33
2022-12-02T17:53:43.936Z,78.45
2022-12-02T17:56:11.298Z,78.25
2022-12-02T17:58:38.304Z,78.48
2022-12-02T18:01:11.195Z,78.27
2022-12-02T18:03:39.250Z,78.43
2022-12-02T18:06:06.727Z,78.22
2022-12-02T18:08:33.812Z,78.32
2022-12-02T18:11:00.887Z,78.31
2022-12-02T18:13:27.809Z,77.92
2022-12-02T18:15:54.870Z,78.07
2022-12-02T18:18:21.917Z,77.90
2022-12-02T18:20:48.804Z,78.31
2022-12-02T18:23:15.716Z,78.10
2022-12-02T18:25:42.590Z,78.22
2022-12-02T18:28:09.501Z,77.92
2022-12-02T18:30:36.427Z,78.24
2022-12-02T18:33:03.410Z,77.91
2022-12-02T18:35:33.000Z,78.08
2022-12-02T18:38:00.107Z,78.25
2022-12-02T18:40:27.147Z,78.08
2022-12-02T18:42:54.041Z,78.05
2022-12-02T18:45:20.940Z,78.07
2022-12-02T18:47:48.248Z,78.11
2022-12-02T18:50:15.214Z,78.17
2022-12-02T18:52:42.696Z,78.31
2022-12-02T18:55:11.935Z,78.28
2022-12-02T18:57:39.041Z,78.37
2022-12-02T19:00:06.938Z,78.38
2022-12-02T19:02:33.994Z,78.29
2022-12-02T19:05:01.288Z,78.29
2022-12-02T19:07:28.265Z,78.29
2022-12-02T19:09:55.201Z,78.51
2022-12-02T19:12:22.096Z,78.18
2022-12-02T19:14:49.068Z,78.58
2022-12-02T19:17:16.034Z,78.33
2022-12-02T19:19:43.170Z,78.50
2022-12-02T19:22:10.653Z,78.14
2022-12-02T19:24:37.604Z,78.11
2022-12-02T19:27:04.989Z,78.40
2022-12-02T19:29:31.886Z,78.26
2022-12-02T19:31:58.951Z,78.20
2022-12-02T19:34:26.168Z,78.25
2022-12-02T19:36:53.063Z,78.38
2022-12-02T19:39:19.952Z,78.52
2022-12-02T19:41:46.864Z,78.41
2022-12-02T19:44:13.746Z,78.25
2022-12-02T19:46:40.756Z,78.33
2022-12-02T19:49:07.737Z,78.37
2022-12-02T19:51:34.684Z,78.32
2022-12-02T19:54:01.704Z,78.38
2022-12-02T19:56:28.656Z,78.37
2022-12-02T19:58:58.363Z,78.01
2022-12-02T20:01:25.750Z,78.16
2022-12-02T20:03:52.801Z,77.94
2022-12-02T20:06:19.709Z,78.39
2022-12-02T20:08:46.865Z,78.07
2022-12-02T20:11:13.751Z,78.18
2022-12-02T20:13:40.653Z,78.17
2022-12-02T20:16:07.798Z,77.79
2022-12-02T20:18:34.760Z,77.94
2022-12-02T20:21:01.668Z,77.89
2022-12-02T20:23:28.883Z,78.03
2022-12-02T20:25:56.037Z,77.78
2022-12-02T20:28:23.005Z,77.96
2022-12-02T20:30:49.991Z,77.70
2022-12-02T20:33:16.974Z,77.41
2022-12-02T20:35:43.933Z,77.84
2022-12-02T20:38:10.828Z,77.96
2022-12-02T20:40:37.703Z,77.68
2022-12-02T20:43:04.583Z,77.82
2022-12-02T20:45:31.449Z,78.00
2022-12-02T20:47:58.395Z,77.63
2022-12-02T20:50:25.784Z,77.89
2022-12-02T20:52:54.124Z,77.75
2022-12-02T20:55:21.515Z,77.69
2022-12-02T20:57:48.488Z,77.79
2022-12-02T21:00:16.496Z,77.63
2022-12-02T21:02:43.787Z,77.56
2022-12-02T21:05:10.995Z,77.57
2022-12-02T21:07:38.582Z,77.69
2022-12-02T21:10:06.136Z,77.41
2022-12-02T21:12:33.076Z,77.65
2022-12-02T21:14:59.995Z,77.52
2022-12-02T21:17:27.366Z,77.67
2022-12-02T21:19:54.691Z,77.35
2022-12-02T21:22:21.670Z,77.69
2022-12-02T21:24:48.612Z,77.43
2022-12-02T21:27:15.844Z,77.67
2022-12-02T21:29:42.760Z,77.34
2022-12-02T21:32:09.656Z,77.22
2022-12-02T21:34:36.541Z,77.66
2022-12-02T21:37:03.421Z,77.38
2022-12-02T21:39:31.009Z,77.56
2022-12-02T21:41:57.908Z,77.51
2022-12-02T21:44:25.088Z,77.48
2022-12-02T21:46:52.090Z,77.36
2022-12-02T21:49:19.081Z,77.44
2022-12-02T21:51:45.967Z,77.49
2022-12-02T21:54:12.884Z,77.33
2022-12-02T21:56:39.788Z,77.06
2022-12-02T21:59:06.673Z,77.35
2022-12-02T22:01:40.792Z,77.37
2022-12-02T22:04:10.424Z,77.35
2022-12-02T22:06:37.377Z,77.27
2022-12-02T22:09:04.721Z,77.12
2022-12-02T22:11:31.930Z,76.93
2022-12-02T22:13:59.007Z,77.08
2022-12-02T22:16:26.151Z,77.03
2022-12-02T22:18:53.244Z,77.18
2022-12-02T22:21:20.124Z,77.12
2022-12-02T22:23:47.092Z,77.00
2022-12-02T22:26:19.505Z,76.94
2022-12-02T22:28:46.919Z,77.13
2022-12-02T22:31:18.872Z,77.29
2022-12-02T22:33:45.814Z,77.19
2022-12-02T22:36:12.709Z,77.17
2022-12-02T22:38:39.643Z,76.99
2022-12-02T22:41:06.520Z,77.02
2022-12-02T22:43:33.424Z,76.91
2022-12-02T22:46:00.448Z,77.38
2022-12-02T22:48:27.377Z,77.47
2022-12-02T22:50:55.707Z,77.24
2022-12-02T22:53:22.694Z,77.15
2022-12-02T22:55:49.590Z,77.28
2022-12-02T22:58:16.800Z,77.34
2022-12-02T23:00:43.772Z,77.30
2022-12-02T23:03:10.763Z,77.20
2022-12-02T23:05:37.632Z,77.30
2022-12-02T23:08:04.742Z,77.08
2022-12-02T23:10:32.304Z,77.23
2022-12-02T23:13:01.204Z,77.33
2022-12-02T23:15:37.644Z,77.39
2022-12-02T23:18:06.499Z,77.30
2022-12-02T23:20:33.717Z,77.36
2022-12-02T23:23:03.904Z,77.15
2022-12-02T23:25:34.680Z,77.33
2022-12-02T23:28:01.581Z,77.36
2022-12-02T23:30:29.497Z,77.30
2022-12-02T23:32:57.621Z,77.46
2022-12-02T23:35:24.927Z,77.60
2022-12-02T23:37:51.809Z,77.34
2022-12-02T23:40:18.906Z,77.49
2022-12-02T23:42:45.800Z,77.56
2022-12-02T23:45:12.757Z,77.46
2022-12-02T23:47:39.653Z,77.59
2022-12-02T23:50:07.403Z,77.45
2022-12-02T23:52:34.297Z,77.76
2022-12-02T23:55:01.178Z,77.72
2022-12-02T23:57:28.156Z,77.48
2022-12-02T23:59:58.072Z,77.71
